createdAt,value
2019-06-25T00:00:12.524Z,47.00
2019-06-25T00:02:45.176Z,47.20
2019-06-25T00:05:17.888Z,47.20
2019-06-25T00:07:50.240Z,47.30
2019-06-25T00:10:23.689Z,47.50
2019-06-25T00:12:56.047Z,47.70
2019-06-25T00:15:28.234Z,47.60
2019-06-25T00:18:00.436Z,47.60
2019-06-25T00:20:32.622Z,47.60
2019-06-25T00:23:04.932Z,47.70
2019-06-25T00:25:37.133Z,47.70
2019-06-25T00:28:09.630Z,48.00
2019-06-25T00:30:42.054Z,47.90
2019-06-25T00:33:14.372Z,47.90
2019-06-25T00:35:46.967Z,47.80
2019-06-25T00:38:19.318Z,47.90
2019-06-25T00:40:51.602Z,48.10
2019-06-25T00:43:24.136Z,48.10
2019-06-25T00:45:58.010Z,48.20
2019-06-25T00:48:30.598Z,48.40
2019-06-25T00:51:02.941Z,48.40
2019-06-25T00:53:35.319Z,48.30
2019-06-25T00:56:07.643Z,48.60
2019-06-25T00:58:39.972Z,48.70
2019-06-25T01:01:14.991Z,48.70
2019-06-25T01:03:47.528Z,48.80
2019-06-25T01:06:19.802Z,48.90
2019-06-25T01:08:52.113Z,49.00
2019-06-25T01:11:25.513Z,48.80
2019-06-25T01:13:58.289Z,48.90
2019-06-25T01:16:30.879Z,49.00
2019-06-25T01:19:03.722Z,49.20
2019-06-25T01:21:36.349Z,49.10
2019-06-25T01:24:08.651Z,49.30
2019-06-25T01:26:41.110Z,49.40
2019-06-25T01:29:13.561Z,49.40
2019-06-25T01:31:45.924Z,49.40
2019-06-25T01:34:19.715Z,49.60
2019-06-25T01:36:52.206Z,49.80
2019-06-25T01:39:24.506Z,49.80
2019-06-25T01:41:57.592Z,49.80
2019-06-25T01:44:31.711Z,49.80
2019-06-25T01:47:04.036Z,50.00
2019-06-25T01:49:36.260Z,50.10
2019-06-25T01:52:08.964Z,50.10
2019-06-25T01:54:41.332Z,50.30
2019-06-25T01:57:13.814Z,50.20
2019-06-25T01:59:46.336Z,50.20
2019-06-25T02:02:18.780Z,50.30
2019-06-25T02:04:51.189Z,50.40
2019-06-25T02:07:24.673Z,50.50
2019-06-25T02:09:56.992Z,50.40
2019-06-25T02:12:30.274Z,50.60
2019-06-25T02:15:02.662Z,50.80
2019-06-25T02:17:34.997Z,50.90
2019-06-25T02:20:07.910Z,50.90
2019-06-25T02:22:40.399Z,51.10
2019-06-25T02:25:13.026Z,51.10
2019-06-25T02:27:45.367Z,51.30
2019-06-25T02:30:18.128Z,51.40
2019-06-25T02:32:50.501Z,51.40
2019-06-25T02:35:22.866Z,51.70
2019-06-25T02:37:55.173Z,51.70
2019-06-25T02:40:27.535Z,51.90
2019-06-25T02:42:59.986Z,52.00
2019-06-25T02:45:32.419Z,51.90
2019-06-25T02:48:04.859Z,51.90
2019-06-25T02:50:37.259Z,52.00
2019-06-25T02:53:09.759Z,52.00
2019-06-25T02:55:42.284Z,52.20
2019-06-25T02:58:14.625Z,52.30
2019-06-25T03:00:46.897Z,52.20
2019-06-25T03:03:19.526Z,52.40
2019-06-25T03:05:51.967Z,52.40
2019-06-25T03:08:24.825Z,52.40
2019-06-25T03:10:57.239Z,52.40
2019-06-25T03:13:29.608Z,52.50
2019-06-25T03:16:01.873Z,52.60
2019-06-25T03:18:34.238Z,52.70
2019-06-25T03:21:06.889Z,52.60
2019-06-25T03:23:39.226Z,52.90
2019-06-25T03:26:11.560Z,53.00
2019-06-25T03:28:45.083Z,53.10
2019-06-25T03:31:17.538Z,53.10
2019-06-25T03:33:50.141Z,53.20
2019-06-25T03:36:22.836Z,53.10
2019-06-25T03:38:55.181Z,53.30
2019-06-25T03:41:27.691Z,53.40
2019-06-25T03:44:00.017Z,53.50
2019-06-25T03:46:32.290Z,53.70
2019-06-25T03:49:04.533Z,53.60
2019-06-25T03:51:37.079Z,53.60
2019-06-25T03:54:09.558Z,53.60
2019-06-25T03:56:41.928Z,53.70
2019-06-25T03:59:16.151Z,53.70
2019-06-25T04:01:48.581Z,53.90
2019-06-25T04:04:20.867Z,54.10
2019-06-25T04:06:53.078Z,54.10
2019-06-25T04:09:25.522Z,54.20
2019-06-25T04:11:57.833Z,54.20
2019-06-25T04:14:31.362Z,54.20
2019-06-25T04:17:03.726Z,54.20
2019-06-25T04:19:36.126Z,54.20
2019-06-25T04:22:08.830Z,54.20
2019-06-25T04:24:41.552Z,54.20
2019-06-25T04:27:14.287Z,54.20
2019-06-25T04:29:46.778Z,54.30
2019-06-25T04:32:32.175Z,54.30
2019-06-25T04:34:53.667Z,54.40
2019-06-25T04:37:26.184Z,54.40
2019-06-25T04:39:58.743Z,54.40
2019-06-25T04:42:31.255Z,54.40
2019-06-25T04:45:05.282Z,54.30
2019-06-25T04:47:38.167Z,54.30
2019-06-25T04:50:11.790Z,54.50
2019-06-25T04:52:44.419Z,54.40
2019-06-25T04:55:17.567Z,54.40
2019-06-25T04:57:49.893Z,54.40
2019-06-25T05:00:23.439Z,54.40
2019-06-25T05:02:55.968Z,54.20
2019-06-25T05:05:29.736Z,54.00
2019-06-25T05:08:02.634Z,53.90
2019-06-25T05:10:35.137Z,53.80
2019-06-25T05:13:07.510Z,53.80
2019-06-25T05:15:41.387Z,53.80
2019-06-25T05:18:13.991Z,53.60
2019-06-25T05:20:46.490Z,54.10
2019-06-25T05:23:20.022Z,53.30
2019-06-25T05:25:53.006Z,53.40
2019-06-25T05:28:25.621Z,53.20
2019-06-25T05:30:58.593Z,53.30
2019-06-25T05:33:31.083Z,53.20
2019-06-25T05:36:09.906Z,53.00
2019-06-25T05:38:42.554Z,52.90
2019-06-25T05:41:14.950Z,52.70
2019-06-25T05:43:47.490Z,52.70
2019-06-25T05:46:19.848Z,52.60
2019-06-25T05:48:52.196Z,52.50
2019-06-25T05:51:24.437Z,52.50
2019-06-25T05:53:56.972Z,52.60
2019-06-25T05:56:29.335Z,52.70
2019-06-25T05:59:01.825Z,52.70
2019-06-25T06:01:34.149Z,52.60
2019-06-25T06:04:06.628Z,52.50
2019-06-25T06:06:38.989Z,52.50
2019-06-25T06:09:11.455Z,52.60
2019-06-25T06:11:43.830Z,52.60
2019-06-25T06:14:16.286Z,52.30
2019-06-25T06:16:48.805Z,52.20
2019-06-25T06:19:21.132Z,52.20
2019-06-25T06:21:53.705Z,52.00
2019-06-25T06:24:26.701Z,52.00
2019-06-25T06:26:59.364Z,51.90
2019-06-25T06:29:32.660Z,51.60
2019-06-25T06:32:05.298Z,51.50
2019-06-25T06:34:37.561Z,51.40
2019-06-25T06:37:10.012Z,51.30
2019-06-25T06:39:43.726Z,51.10
2019-06-25T06:42:16.338Z,50.20
2019-06-25T06:44:49.494Z,49.00
2019-06-25T06:47:22.429Z,49.30
2019-06-25T06:49:55.167Z,49.10
2019-06-25T06:52:27.798Z,49.30
2019-06-25T06:55:00.289Z,48.10
2019-06-25T06:57:36.415Z,47.70
2019-06-25T07:00:09.755Z,46.90
2019-06-25T07:02:47.833Z,46.90
2019-06-25T07:05:23.921Z,47.00
2019-06-25T07:08:01.353Z,46.50
2019-06-25T07:10:35.292Z,46.10
2019-06-25T07:13:08.226Z,46.20
2019-06-25T07:15:40.631Z,46.20
2019-06-25T07:18:13.949Z,46.20
2019-06-25T07:20:46.921Z,45.60
2019-06-25T07:23:20.425Z,46.70
2019-06-25T07:25:54.508Z,45.40
2019-06-25T07:28:27.826Z,45.10
2019-06-25T07:31:00.804Z,44.80
2019-06-25T07:33:34.141Z,44.80
2019-06-25T07:36:06.770Z,44.80
2019-06-25T07:38:41.418Z,44.60
2019-06-25T07:41:15.457Z,43.90
2019-06-25T07:43:50.907Z,43.90
2019-06-25T07:46:23.769Z,44.70
2019-06-25T07:48:56.421Z,44.30
2019-06-25T07:51:28.899Z,43.90
2019-06-25T07:54:01.561Z,43.70
2019-06-25T07:56:37.130Z,43.90
2019-06-25T07:59:07.994Z,43.90
2019-06-25T08:01:40.654Z,43.40
2019-06-25T08:04:24.909Z,43.60
2019-06-25T08:06:47.662Z,43.40
2019-06-25T08:09:20.152Z,43.20
2019-06-25T08:11:52.372Z,43.30
2019-06-25T08:14:24.829Z,43.10
2019-06-25T08:16:57.224Z,43.30
2019-06-25T08:19:30.004Z,42.80
2019-06-25T08:22:03.533Z,42.60
2019-06-25T08:24:36.721Z,42.00
2019-06-25T08:27:09.648Z,42.10
2019-06-25T08:29:43.072Z,42.30
2019-06-25T08:32:15.496Z,42.20
2019-06-25T08:34:48.066Z,41.50
2019-06-25T08:37:20.640Z,41.80
2019-06-25T08:39:52.908Z,41.30
2019-06-25T08:42:25.761Z,41.80
2019-06-25T08:45:02.250Z,41.80
2019-06-25T08:47:38.333Z,41.60
2019-06-25T08:50:13.227Z,41.30
2019-06-25T08:52:57.610Z,41.20
2019-06-25T08:55:19.912Z,40.80
2019-06-25T08:57:52.571Z,41.00
2019-06-25T09:00:26.274Z,40.80
2019-06-25T09:02:58.753Z,40.50
2019-06-25T09:05:31.038Z,40.10
2019-06-25T09:08:03.331Z,40.30
2019-06-25T09:10:35.613Z,39.60
2019-06-25T09:13:08.174Z,39.70
2019-06-25T09:15:40.528Z,39.30
2019-06-25T09:18:12.902Z,38.80
2019-06-25T09:20:45.342Z,38.90
2019-06-25T09:23:17.864Z,38.60
2019-06-25T09:25:50.550Z,38.60
2019-06-25T09:28:23.171Z,39.20
2019-06-25T09:30:56.261Z,38.90
2019-06-25T09:33:29.057Z,38.00
2019-06-25T09:36:01.759Z,38.20
2019-06-25T09:38:34.353Z,38.40
2019-06-25T09:41:05.457Z,38.80
2019-06-25T09:43:36.237Z,38.50
2019-06-25T09:46:09.237Z,37.90
2019-06-25T09:48:42.091Z,38.40
2019-06-25T09:51:14.814Z,38.60
2019-06-25T09:53:47.526Z,38.70
2019-06-25T09:56:19.949Z,38.50
2019-06-25T09:58:54.119Z,38.70
2019-06-25T10:01:40.961Z,38.20
2019-06-25T10:04:03.322Z,38.20
2019-06-25T10:06:36.004Z,37.90
2019-06-25T10:09:11.635Z,37.50
2019-06-25T10:11:45.014Z,38.10
2019-06-25T10:14:18.454Z,37.80
2019-06-25T10:16:51.599Z,37.40
2019-06-25T10:19:24.379Z,37.30
2019-06-25T10:21:58.816Z,37.40
2019-06-25T10:24:31.469Z,37.50
2019-06-25T10:27:03.976Z,37.80
2019-06-25T10:29:36.602Z,37.50
2019-06-25T10:32:09.053Z,37.50
2019-06-25T10:34:41.373Z,37.20
2019-06-25T10:37:13.853Z,37.20
2019-06-25T10:39:46.088Z,37.10
2019-06-25T10:42:18.573Z,37.30
2019-06-25T10:44:51.337Z,36.40
2019-06-25T10:47:25.720Z,37.00
2019-06-25T10:49:58.605Z,36.70
2019-06-25T10:52:31.299Z,36.50
2019-06-25T10:55:03.744Z,36.60
2019-06-25T10:57:36.080Z,36.70
2019-06-25T11:00:09.666Z,36.00
2019-06-25T11:02:42.584Z,36.30
2019-06-25T11:05:14.942Z,35.60
2019-06-25T11:07:47.505Z,35.90
2019-06-25T11:10:19.768Z,36.20
2019-06-25T11:12:52.457Z,36.40
2019-06-25T11:15:24.946Z,36.30
2019-06-25T11:17:57.447Z,36.00
2019-06-25T11:20:30.009Z,35.80
2019-06-25T11:23:02.469Z,35.80
2019-06-25T11:25:34.789Z,35.60
2019-06-25T11:28:06.961Z,35.00
2019-06-25T11:30:39.805Z,35.10
2019-06-25T11:33:12.186Z,35.40
2019-06-25T11:35:44.616Z,34.60
2019-06-25T11:38:17.633Z,34.80
2019-06-25T11:40:50.230Z,34.60
2019-06-25T11:43:22.608Z,34.60
2019-06-25T11:45:54.944Z,34.60
2019-06-25T11:48:27.488Z,34.40
2019-06-25T11:51:00.382Z,34.60
2019-06-25T11:53:33.120Z,34.20
2019-06-25T11:56:05.845Z,34.00
2019-06-25T11:58:38.532Z,33.90
2019-06-25T12:01:11.178Z,34.20
2019-06-25T12:03:43.931Z,34.00
2019-06-25T12:06:29.438Z,34.00
2019-06-25T12:08:50.593Z,33.80
2019-06-25T12:11:24.307Z,33.70
2019-06-25T12:13:57.008Z,33.20
2019-06-25T12:16:29.627Z,33.30
2019-06-25T12:19:02.662Z,32.70
2019-06-25T12:21:36.134Z,33.20
2019-06-25T12:24:15.550Z,33.00
2019-06-25T12:26:48.808Z,32.70
2019-06-25T12:29:21.651Z,32.50
2019-06-25T12:31:54.282Z,32.10
2019-06-25T12:34:26.535Z,32.70
2019-06-25T12:37:09.115Z,32.60
2019-06-25T12:39:37.311Z,32.90
2019-06-25T12:42:10.625Z,32.70
2019-06-25T12:44:42.937Z,32.10
2019-06-25T12:47:15.393Z,31.70
2019-06-25T12:49:48.072Z,32.20
2019-06-25T12:52:21.864Z,31.50
2019-06-25T12:54:54.421Z,31.80
2019-06-25T12:57:27.748Z,31.40
2019-06-25T13:00:00.626Z,30.90
2019-06-25T13:02:37.337Z,30.70
2019-06-25T13:05:09.966Z,30.60
2019-06-25T13:07:42.298Z,30.90
2019-06-25T13:10:15.109Z,30.30
2019-06-25T13:12:47.471Z,30.60
2019-06-25T13:15:20.832Z,30.20
2019-06-25T13:17:53.621Z,30.00
2019-06-25T13:20:26.118Z,30.20
2019-06-25T13:22:58.612Z,30.00
2019-06-25T13:25:31.535Z,30.00
2019-06-25T13:28:03.866Z,30.40
2019-06-25T13:30:36.304Z,30.10
2019-06-25T13:33:08.631Z,30.00
2019-06-25T13:35:41.054Z,29.80
2019-06-25T13:38:13.291Z,29.70
2019-06-25T13:40:45.717Z,30.00
2019-06-25T13:43:17.966Z,29.60
2019-06-25T13:45:50.157Z,29.00
2019-06-25T13:48:22.558Z,29.10
2019-06-25T13:50:57.721Z,29.20
2019-06-25T13:53:28.886Z,29.50
2019-06-25T13:56:01.688Z,29.50
2019-06-25T13:58:33.953Z,30.00
2019-06-25T14:01:07.114Z,30.00
2019-06-25T14:03:39.491Z,30.30
2019-06-25T14:06:11.861Z,30.30
2019-06-25T14:08:44.164Z,30.00
2019-06-25T14:11:16.416Z,29.70
2019-06-25T14:13:49.074Z,29.70
2019-06-25T14:16:21.493Z,29.60
2019-06-25T14:18:59.309Z,29.30
2019-06-25T14:21:34.142Z,29.40
2019-06-25T14:24:06.625Z,29.20
2019-06-25T14:26:39.121Z,29.10
2019-06-25T14:29:11.482Z,29.50
2019-06-25T14:31:43.644Z,29.20
2019-06-25T14:34:20.165Z,29.00
2019-06-25T14:36:53.317Z,28.60
2019-06-25T14:39:25.915Z,28.70
2019-06-25T14:41:58.692Z,29.10
2019-06-25T14:44:31.204Z,28.90
2019-06-25T14:47:03.588Z,29.10
2019-06-25T14:49:35.807Z,29.30
2019-06-25T14:52:07.993Z,29.30
2019-06-25T14:54:40.409Z,29.20
2019-06-25T14:57:12.684Z,29.20
2019-06-25T14:59:45.193Z,29.20
2019-06-25T15:02:17.444Z,29.30
2019-06-25T15:04:49.879Z,29.30
2019-06-25T15:07:22.234Z,29.40
2019-06-25T15:09:54.548Z,29.30
2019-06-25T15:12:26.890Z,29.60
2019-06-25T15:14:59.418Z,28.90
2019-06-25T15:17:32.042Z,28.90
2019-06-25T15:20:04.794Z,29.30
2019-06-25T15:22:37.444Z,29.50
2019-06-25T15:25:09.972Z,29.40
2019-06-25T15:27:43.148Z,29.50
2019-06-25T15:30:17.389Z,29.50
2019-06-25T15:32:49.765Z,29.70
2019-06-25T15:35:22.555Z,29.70
2019-06-25T15:37:55.388Z,29.80
2019-06-25T15:40:28.102Z,29.50
2019-06-25T15:43:02.188Z,29.60
2019-06-25T15:45:35.219Z,29.50
2019-06-25T15:48:08.034Z,29.20
2019-06-25T15:50:40.685Z,29.30
2019-06-25T15:53:13.647Z,29.40
2019-06-25T15:55:46.018Z,29.40
2019-06-25T15:58:18.506Z,29.40
2019-06-25T16:00:50.851Z,29.50
2019-06-25T16:03:23.273Z,29.40
2019-06-25T16:05:55.935Z,29.40
2019-06-25T16:08:28.346Z,29.50
2019-06-25T16:11:00.577Z,29.80
2019-06-25T16:13:33.051Z,29.70
2019-06-25T16:16:05.698Z,29.60
2019-06-25T16:18:38.040Z,29.80
2019-06-25T16:21:10.440Z,29.60
2019-06-25T16:23:42.789Z,29.80
2019-06-25T16:26:15.080Z,29.60
2019-06-25T16:28:48.313Z,29.60
2019-06-25T16:31:20.589Z,29.40
2019-06-25T16:33:52.913Z,29.50
2019-06-25T16:36:25.184Z,29.50
2019-06-25T16:38:57.767Z,29.90
2019-06-25T16:41:30.144Z,29.50
2019-06-25T16:44:02.319Z,29.60
2019-06-25T16:46:34.750Z,29.50
2019-06-25T16:49:06.973Z,29.50
2019-06-25T16:51:39.229Z,29.40
2019-06-25T16:54:11.484Z,29.50
2019-06-25T16:56:44.116Z,29.50
2019-06-25T16:59:17.311Z,29.70
2019-06-25T17:01:49.947Z,29.30
2019-06-25T17:04:22.372Z,29.40
2019-06-25T17:06:54.875Z,29.20
2019-06-25T17:09:35.011Z,29.50
2019-06-25T17:12:01.912Z,29.30
2019-06-25T17:14:34.453Z,29.50
2019-06-25T17:17:06.952Z,29.40
2019-06-25T17:19:39.123Z,29.50
2019-06-25T17:22:11.778Z,29.50
2019-06-25T17:24:44.039Z,29.40
2019-06-25T17:27:16.484Z,29.50
2019-06-25T17:29:49.788Z,29.50
2019-06-25T17:32:22.047Z,29.50
2019-06-25T17:34:54.494Z,29.60
2019-06-25T17:37:27.063Z,29.60
2019-06-25T17:39:59.866Z,29.70
2019-06-25T17:42:35.475Z,30.00
2019-06-25T17:45:06.750Z,29.90
2019-06-25T17:47:39.451Z,29.80
2019-06-25T17:50:12.596Z,30.20
2019-06-25T17:52:44.989Z,29.70
2019-06-25T17:55:18.244Z,29.80
2019-06-25T17:57:50.734Z,29.90
2019-06-25T18:00:23.171Z,30.00
2019-06-25T18:02:55.532Z,30.00
2019-06-25T18:05:27.730Z,30.50
2019-06-25T18:08:00.228Z,30.00
2019-06-25T18:10:32.553Z,30.00
2019-06-25T18:13:04.871Z,30.00
2019-06-25T18:15:37.027Z,30.00
2019-06-25T18:18:10.672Z,30.20
2019-06-25T18:20:43.341Z,30.40
2019-06-25T18:23:15.648Z,30.60
2019-06-25T18:25:48.048Z,30.90
2019-06-25T18:28:20.300Z,31.80
2019-06-25T18:30:53.116Z,31.80
2019-06-25T18:33:25.679Z,31.80
2019-06-25T18:35:58.260Z,32.80
2019-06-25T18:38:30.628Z,33.50
2019-06-25T18:41:03.212Z,33.20
2019-06-25T18:43:36.137Z,32.80
2019-06-25T18:46:08.770Z,32.80
2019-06-25T18:48:41.147Z,33.40
2019-06-25T18:51:13.387Z,33.50
2019-06-25T18:53:45.859Z,33.20
2019-06-25T18:56:18.271Z,33.80
2019-06-25T18:58:50.986Z,34.70
2019-06-25T19:01:23.378Z,35.30
2019-06-25T19:03:55.676Z,35.30
2019-06-25T19:06:28.108Z,35.40
2019-06-25T19:09:00.306Z,35.10
2019-06-25T19:11:32.592Z,35.80
2019-06-25T19:14:04.976Z,35.60
2019-06-25T19:16:37.229Z,35.70
2019-06-25T19:19:09.419Z,35.80
2019-06-25T19:21:41.922Z,36.10
2019-06-25T19:24:14.744Z,36.00
2019-06-25T19:26:47.132Z,36.00
2019-06-25T19:29:19.596Z,36.10
2019-06-25T19:31:52.756Z,36.90
2019-06-25T19:34:24.951Z,37.30
2019-06-25T19:36:57.204Z,37.20
2019-06-25T19:39:29.569Z,37.70
2019-06-25T19:42:01.834Z,38.00
2019-06-25T19:44:34.248Z,38.10
2019-06-25T19:47:07.080Z,38.40
2019-06-25T19:49:39.903Z,38.70
2019-06-25T19:52:12.517Z,38.90
2019-06-25T19:54:44.835Z,39.00
2019-06-25T19:57:17.187Z,39.30
2019-06-25T19:59:49.479Z,39.50
2019-06-25T20:02:21.644Z,39.70
2019-06-25T20:04:54.258Z,39.80
2019-06-25T20:07:27.332Z,39.80
2019-06-25T20:09:59.613Z,40.10
2019-06-25T20:12:31.886Z,40.30
2019-06-25T20:15:04.264Z,40.40
2019-06-25T20:17:36.582Z,40.60
2019-06-25T20:20:11.968Z,40.80
2019-06-25T20:22:44.275Z,40.90
2019-06-25T20:25:16.667Z,41.10
2019-06-25T20:27:48.789Z,41.30
2019-06-25T20:30:21.181Z,41.40
2019-06-25T20:32:53.516Z,41.50
2019-06-25T20:35:25.840Z,41.90
2019-06-25T20:37:58.035Z,41.90
2019-06-25T20:40:30.286Z,41.80
2019-06-25T20:43:02.837Z,41.90
2019-06-25T20:45:35.448Z,41.90
2019-06-25T20:48:08.112Z,41.90
2019-06-25T20:50:41.229Z,42.00
2019-06-25T20:53:15.365Z,41.90
2019-06-25T20:55:47.726Z,41.80
2019-06-25T20:58:20.039Z,41.70
2019-06-25T21:00:52.380Z,41.90
2019-06-25T21:03:24.888Z,41.90
2019-06-25T21:05:57.240Z,42.00
2019-06-25T21:08:29.760Z,42.00
2019-06-25T21:11:02.616Z,42.20
2019-06-25T21:13:35.504Z,42.20
2019-06-25T21:16:07.950Z,42.40
2019-06-25T21:18:40.633Z,42.60
2019-06-25T21:21:13.118Z,42.60
2019-06-25T21:23:55.113Z,42.80
2019-06-25T21:26:19.927Z,42.70
2019-06-25T21:28:52.972Z,42.80
2019-06-25T21:31:25.272Z,43.10
2019-06-25T21:33:58.186Z,43.00
2019-06-25T21:36:31.370Z,42.90
2019-06-25T21:39:05.289Z,43.20
2019-06-25T21:41:37.803Z,43.20
2019-06-25T21:44:13.913Z,43.50
2019-06-25T21:46:44.426Z,43.60
2019-06-25T21:49:16.829Z,43.60
2019-06-25T21:51:49.273Z,43.80
2019-06-25T21:54:21.679Z,43.90
2019-06-25T21:56:53.971Z,44.00
2019-06-25T21:59:26.692Z,44.30
2019-06-25T22:02:00.813Z,44.30
2019-06-25T22:04:33.375Z,44.50
2019-06-25T22:07:05.847Z,44.50
2019-06-25T22:09:38.917Z,44.70
2019-06-25T22:12:20.780Z,44.70
2019-06-25T22:14:46.125Z,44.90
2019-06-25T22:17:18.709Z,44.90
2019-06-25T22:19:51.243Z,44.80
2019-06-25T22:22:23.832Z,45.00
2019-06-25T22:24:56.609Z,45.30
2019-06-25T22:27:29.122Z,45.30
2019-06-25T22:30:02.069Z,45.30
2019-06-25T22:32:36.246Z,45.30
2019-06-25T22:35:09.552Z,45.40
2019-06-25T22:37:43.212Z,45.50
2019-06-25T22:40:15.689Z,45.60
2019-06-25T22:42:49.472Z,45.50
2019-06-25T22:45:22.366Z,45.30
2019-06-25T22:47:55.073Z,45.50
2019-06-25T22:50:27.496Z,45.60
2019-06-25T22:53:02.078Z,45.60
2019-06-25T22:55:34.945Z,45.60
2019-06-25T22:58:07.474Z,45.80
2019-06-25T23:00:39.713Z,45.90
2019-06-25T23:03:11.966Z,45.80
2019-06-25T23:05:44.901Z,45.90
2019-06-25T23:08:17.648Z,45.90
2019-06-25T23:10:50.085Z,46.10
2019-06-25T23:13:22.544Z,46.10
2019-06-25T23:15:55.932Z,46.80
2019-06-25T23:18:28.357Z,46.40
2019-06-25T23:21:00.824Z,46.40
2019-06-25T23:23:33.710Z,46.40
2019-06-25T23:26:06.444Z,46.50
2019-06-25T23:28:40.022Z,46.50
2019-06-25T23:31:12.957Z,46.80
2019-06-25T23:33:45.492Z,46.60
2019-06-25T23:36:18.084Z,46.80
2019-06-25T23:38:50.783Z,46.60
2019-06-25T23:41:23.195Z,46.80
2019-06-25T23:43:55.544Z,47.00
2019-06-25T23:46:28.805Z,47.00
2019-06-25T23:49:01.150Z,47.10
2019-06-25T23:51:33.664Z,47.30
2019-06-25T23:54:06.651Z,47.30
2019-06-25T23:56:39.589Z,47.60
2019-06-25T23:59:13.438Z,47.60
